Terminal Aerodrome Forecast
Issued by NWS

Home | Current Version | Previous Version | Text Only | Print | Product List | Glossary On
Versions: 1 2 3 4 5 6 7 8 9 10 11 12 13 14 15 16 17 18 19 20 21 22 23 24 25 26 27 28 29 30 31 32 33 34 35 36 37 38 39 40
000
FTUS41 KBOX 240748 AAA
TAFFMH
TAF AMD
KFMH 240748Z 2408/2506 10007KT P6SM BKN100
     FM241100 10009KT P6SM -RA OVC080
     FM241200 09010G18KT 5SM RA BR OVC040
     FM241500 08015G27KT 3SM RA BR OVC025
     FM241700 08015G25KT 3SM -RA BR SCT008 OVC015
     FM242300 01007KT 3SM BR BKN008
     FM250100 36010G17KT P6SM BKN008=

USA.gov is the U.S. government's official web portal to all federal, state and local government web resources and services.